Kezdőlap
METAR-TAF:

METAR-TAF

Repülőterek :

Vlissingen, Hollandia

földrajzi szélesség: 51-27N, földrajzi hosszúság: 3-36E, magasság: 10 m

Jelenlegi meteorológiai megfigyelések

A jelentés 16 perccel ezelõtt készült, 19:55 UTC
Nyugat-délnyugati szél 23 kt
Hőmérséklet 10°C
Páratartalom 87%
Légköri nyomás 1020 hPa
Látótávolság: 6000 m

METAR: EHFS 221955Z AUTO 24023KT 6000 FEW013/// SCT037/// 10/08 Q1020

Idő: 21:11 (20:11 UTC)


TAF: hiányzik

Meteorológiai megfigyelések és előrejelzések több, mint 4000 repülőtéren (METAR és TAF jelentéseket).

A térképen piros és sárga pontok jelzik az elérhető meteorológiai állomásokat.

Mozgassa az egeret a pont fölött, hogy megjelenjen az állomás neve.

Azután kattintson az időjárási megfigyelések és előrejelzések megtekintéséhez.

A térkép megváltoztatása: kattintson a fekete keresztel jelölt zöld gombra ráközelítéshez, a vonallal jelölt zöld gombra távolításhoz, vagy a zöld nyilakra a szomszédos térképek eléréséhez.


METAR-TAF: